Terminal Aerodrome Forecast
Issued by NWS

Home | Current Version | Previous Version | Text Only | Print | Product List | Glossary On
Versions: 1 2 3 4 5 6 7 8 9 10 11 12 13 14 15 16 17 18 19 20 21
000
FTUS41 KCAR 251700
TAFFVE
TAF
KFVE 251720Z 2518/2618 00000KT P6SM -DZ OVC015
     FM260000 11004KT P6SM BKN020
     FM260600 11006KT 4SM -SHRA OVC003
     FM261200 11005KT 3SM -SHRA OVC001=

USA.gov is the U.S. government's official web portal to all federal, state and local government web resources and services.